Time;durP1;ratioP1;P1;durP2;ratioP2;P2;SDS_P1;SDS_P2;PMS_P1;PMS_P2;Temp;Humidity;BMP_temperature;BMP_pressure;BME280_temperature;BME280_humidity;BME280_pressure;Samples;Min_cycle;Max_cycle;Signal;HPM_P1;HPM_P2
2022/10/25 00:02:22;;;;;;;;;;;;;;;11.35;96.09;99314.59;10258148;23;19989;-80
2022/10/25 00:06:24;;;;;;;;;;;;;;;11.38;96.03;99318.91;10286442;23;19997;-79
2022/10/25 00:10:26;;;;;;;;;;;;;;;11.38;95.76;99322.38;10309380;23;20215;-80
2022/10/25 00:14:27;;;;;;;;;;;;;;;11.35;95.27;99319.81;10310848;23;19987;-78
2022/10/25 00:18:29;;;;;;;;;;;;;;;11.34;95.14;99328.47;10336693;23;19927;-80
2022/10/25 00:22:30;;;;;;;;;;;;;;;11.29;95.25;99331.97;10308881;23;19981;-81
2022/10/25 00:26:33;;;;;;;;;;;;;;;11.22;95.50;99335.50;10309060;23;19923;-80
2022/10/25 00:30:34;;;;;;;;;;;;;;;11.20;95.85;99336.38;10284216;23;19923;-80
2022/10/25 00:34:38;;;;;;;;;;;;;;;11.18;95.86;99345.06;10283990;23;19931;-81
2022/10/25 00:38:40;;;;;;;;;;;;;;;11.13;96.17;99339.91;10309224;23;20400;-80
2022/10/25 00:42:42;;;;;;;;;;;;;;;11.14;96.64;99340.78;10334108;23;19946;-80
2022/10/25 00:46:43;;;;;;;;;;;;;;;11.16;96.76;99349.41;10276913;23;19997;-80
2022/10/25 00:50:49;;;;;;;;;;;;;;;11.15;96.91;99350.28;10282811;23;19989;-80
2022/10/25 00:54:52;;;;;;;;;;;;;;;11.15;96.83;99343.34;10285912;23;20010;-81
2022/10/25 00:58:56;;;;;;;;;;;;;;;11.18;97.43;99350.25;10308453;23;20457;-81
2022/10/25 01:02:58;;;;;;;;;;;;;;;11.23;97.25;99358.88;10299978;23;19969;-79
2022/10/25 01:07:01;;;;;;;;;;;;;;;11.29;97.15;99357.97;10333802;23;19920;-80
2022/10/25 01:11:02;;;;;;;;;;;;;;;11.31;97.04;99356.22;10307168;23;20188;-81
2022/10/25 01:15:04;;;;;;;;;;;;;;;11.34;97.16;99362.28;10328053;23;19977;-80
2022/10/25 01:19:18;;;;;;;;;;;;;;;11.34;97.05;99359.66;10332246;23;20452;-79
2022/10/25 01:23:19;;;;;;;;;;;;;;;11.34;96.87;99359.66;10307948;23;19958;-80
2022/10/25 01:27:23;;;;;;;;;;;;;;;11.32;96.55;99350.16;10308040;23;19923;-80
2022/10/25 01:31:29;;;;;;;;;;;;;;;11.29;96.33;99348.44;10276663;23;19936;-81
2022/10/25 01:35:35;;;;;;;;;;;;;;;11.26;96.30;99348.44;10258340;23;19999;-80
2022/10/25 01:39:54;;;;;;;;;;;;;;;11.25;97.30;99335.47;10284983;23;19924;-80
2022/10/25 01:44:03;;;;;;;;;;;;;;;11.24;96.87;99328.56;10285332;23;19974;-80
2022/10/25 01:48:18;;;;;;;;;;;;;;;11.21;97.06;99326.84;10225824;23;19924;-81
2022/10/25 01:52:20;;;;;;;;;;;;;;;11.17;97.20;99332.94;10233937;23;19988;-81
2022/10/25 01:56:36;;;;;;;;;;;;;;;11.13;97.62;99329.53;10233474;23;19935;-80
2022/10/25 02:00:47;;;;;;;;;;;;;;;11.15;97.26;99335.56;10227244;23;19998;-82
2022/10/25 02:05:07;;;;;;;;;;;;;;;11.13;97.44;99326.91;10263672;23;20580;-80
2022/10/25 02:09:26;;;;;;;;;;;;;;;11.10;97.97;99336.44;10237222;23;20015;-81
2022/10/25 02:13:41;;;;;;;;;;;;;;;11.11;97.77;99333.84;10239515;23;20070;-80
2022/10/25 02:17:53;;;;;;;;;;;;;;;11.10;97.94;99323.47;10256024;23;20419;-80
2022/10/25 02:21:55;;;;;;;;;;;;;;;11.08;97.75;99322.59;10259079;23;20011;-80
2022/10/25 02:25:57;;;;;;;;;;;;;;;11.05;97.67;99327.84;10234867;23;20002;-80
2022/10/25 02:30:00;;;;;;;;;;;;;;;10.97;96.87;99316.66;10285564;23;19920;-80
2022/10/25 02:34:02;;;;;;;;;;;;;;;10.87;97.19;99324.50;10255534;23;19924;-81
2022/10/25 02:38:03;;;;;;;;;;;;;;;10.86;98.07;99332.28;10260495;23;20006;-80
2022/10/25 02:42:05;;;;;;;;;;;;;;;10.81;97.77;99331.47;10260519;23;19928;-80
2022/10/25 02:46:10;;;;;;;;;;;;;;;10.76;97.58;99330.63;10254433;23;19924;-80
2022/10/25 02:50:12;;;;;;;;;;;;;;;10.69;97.77;99334.13;10288768;23;19927;-81
2022/10/25 02:54:13;;;;;;;;;;;;;;;10.68;98.44;99335.00;10265204;23;19970;-80
2022/10/25 02:58:14;;;;;;;;;;;;;;;10.67;98.83;99341.94;10240541;23;19959;-80
2022/10/25 03:02:16;;;;;;;;;;;;;;;10.66;99.35;99340.22;10255513;23;19995;-80
2022/10/25 03:06:17;;;;;;;;;;;;;;;10.66;99.66;99339.34;10261965;23;20003;-80
2022/10/25 03:10:18;;;;;;;;;;;;;;;10.66;99.95;99348.00;10234543;23;20196;-79
2022/10/25 03:14:20;;;;;;;;;;;;;;;10.70;100.00;99346.25;10287968;23;19958;-80
2022/10/25 03:18:22;;;;;;;;;;;;;;;10.66;100.00;99353.19;10259767;23;20342;-80
2022/10/25 03:22:23;;;;;;;;;;;;;;;10.69;100.00;99352.31;10260235;23;19925;-80
2022/10/25 03:26:24;;;;;;;;;;;;;;;10.72;100.00;99349.69;10236505;23;19920;-79
2022/10/25 03:30:26;;;;;;;;;;;;;;;10.77;100.00;99360.91;10236115;23;19923;-80
2022/10/25 03:34:27;;;;;;;;;;;;;;;10.84;100.00;99357.41;10236351;23;19924;-81
2022/10/25 03:38:29;;;;;;;;;;;;;;;10.84;100.00;99357.41;10286256;23;19989;-80
2022/10/25 03:42:30;;;;;;;;;;;;;;;10.86;100.00;99363.47;10260815;23;20006;-80
2022/10/25 03:46:31;;;;;;;;;;;;;;;10.89;100.00;99372.09;10228727;23;19986;-80
2022/10/25 03:50:34;;;;;;;;;;;;;;;10.94;100.00;99374.66;10260096;23;19967;-80
2022/10/25 03:54:36;;;;;;;;;;;;;;;10.98;100.00;99379.00;10260789;23;20027;-80
2022/10/25 03:58:38;;;;;;;;;;;;;;;11.01;100.00;99371.16;10260296;23;20465;-80
2022/10/25 04:02:39;;;;;;;;;;;;;;;11.09;100.00;99379.75;10228707;23;19924;-80
2022/10/25 04:06:40;;;;;;;;;;;;;;;11.17;100.00;99383.19;10259719;23;20015;-80
2022/10/25 04:10:41;;;;;;;;;;;;;;;11.25;100.00;99374.47;10234928;23;20333;-80
2022/10/25 04:14:43;;;;;;;;;;;;;;;11.28;100.00;99372.69;10235939;23;19920;-80
2022/10/25 04:18:45;;;;;;;;;;;;;;;11.30;100.00;99370.06;10228990;23;20300;-80
2022/10/25 04:22:53;;;;;;;;;;;;;;;11.33;100.00;99370.09;10282685;23;20308;-80
2022/10/25 04:26:55;;;;;;;;;;;;;;;11.37;100.00;99376.97;10285999;23;19920;-79
2022/10/25 04:30:56;;;;;;;;;;;;;;;11.42;100.00;99381.25;10253189;23;19931;-80
2022/10/25 04:34:58;;;;;;;;;;;;;;;11.49;100.00;99384.69;10255727;23;20066;-79
2022/10/25 04:39:00;;;;;;;;;;;;;;;11.54;100.00;99385.50;10258766;23;20211;-79
2022/10/25 04:43:01;;;;;;;;;;;;;;;11.58;100.00;99383.72;10233672;23;19947;-79
2022/10/25 04:47:02;;;;;;;;;;;;;;;11.61;100.00;99394.09;10227082;23;20021;-79
2022/10/25 04:51:04;;;;;;;;;;;;;;;11.64;100.00;99391.47;10232791;23;19982;-78
2022/10/25 04:55:06;;;;;;;;;;;;;;;11.63;100.00;99389.75;10232842;23;19924;-78
2022/10/25 04:59:07;;;;;;;;;;;;;;;11.65;100.00;99385.38;10285154;23;20515;-79
2022/10/25 05:03:09;;;;;;;;;;;;;;;11.69;100.00;99397.53;10256715;23;19947;-79
2022/10/25 05:07:17;;;;;;;;;;;;;;;11.72;100.00;99395.75;10232005;23;20534;-78
2022/10/25 05:11:19;;;;;;;;;;;;;;;11.79;100.00;99393.97;10257778;23;19920;-79
2022/10/25 05:15:21;;;;;;;;;;;;;;;11.82;99.92;99396.53;10232468;23;19927;-80
2022/10/25 05:19:22;;;;;;;;;;;;;;;11.87;100.00;99391.31;10284107;23;20262;-80
2022/10/25 05:23:24;;;;;;;;;;;;;;;11.89;100.00;99400.81;10257049;23;19924;-80
2022/10/25 05:27:26;;;;;;;;;;;;;;;11.91;100.00;99393.88;10257185;23;19923;-80
2022/10/25 05:31:28;;;;;;;;;;;;;;;11.96;100.00;99404.22;10250815;23;19997;-79
2022/10/25 05:35:31;;;;;;;;;;;;;;;11.98;99.74;99408.53;10257025;23;19982;-80
2022/10/25 05:39:32;;;;;;;;;;;;;;;11.99;99.78;99404.19;10232119;23;20007;-80
2022/10/25 05:43:34;;;;;;;;;;;;;;;12.00;99.66;99401.56;10256873;23;19966;-79
2022/10/25 05:47:35;;;;;;;;;;;;;;;12.04;100.00;99399.81;10224797;23;19981;-80
2022/10/25 05:51:37;;;;;;;;;;;;;;;12.06;99.31;99395.47;10256244;23;20053;-79
2022/10/25 05:55:38;;;;;;;;;;;;;;;12.08;99.00;99407.56;10230536;23;20344;-79
2022/10/25 05:59:39;;;;;;;;;;;;;;;12.06;99.82;99411.94;10257266;23;19924;-79
2022/10/25 06:03:41;;;;;;;;;;;;;;;12.09;99.15;99418.84;10274608;23;19968;-79
2022/10/25 06:07:43;;;;;;;;;;;;;;;12.11;99.21;99414.47;10255363;23;19928;-80
2022/10/25 06:11:44;;;;;;;;;;;;;;;12.15;100.00;99417.91;10254518;23;20514;-79
2022/10/25 06:15:46;;;;;;;;;;;;;;;12.17;99.69;99417.00;10244778;23;19932;-78
2022/10/25 06:19:47;;;;;;;;;;;;;;;12.18;99.31;99418.72;10255542;23;20007;-78
2022/10/25 06:23:49;;;;;;;;;;;;;;;12.19;99.71;99428.25;10254002;23;19923;-76
2022/10/25 06:27:50;;;;;;;;;;;;;;;12.19;100.00;99424.81;10228830;23;19923;-78
2022/10/25 06:31:51;;;;;;;;;;;;;;;12.23;99.19;99432.59;10221900;23;19947;-78
2022/10/25 06:35:53;;;;;;;;;;;;;;;12.27;99.75;99433.41;10280582;23;19974;-77
2022/10/25 06:39:55;;;;;;;;;;;;;;;12.30;99.63;99443.78;10231417;23;19994;-77
2022/10/25 06:43:57;;;;;;;;;;;;;;;12.32;99.84;99442.03;10255532;23;20002;-77
2022/10/25 06:48:03;;;;;;;;;;;;;;;12.37;99.25;99446.28;10255664;23;19920;-78
2022/10/25 06:52:05;;;;;;;;;;;;;;;12.44;99.41;99451.47;10281250;23;19978;-77
2022/10/25 06:56:07;;;;;;;;;;;;;;;12.50;98.81;99467.88;10281000;23;19973;-77
2022/10/25 07:00:14;;;;;;;;;;;;;;;12.55;99.22;99460.84;10253421;23;19930;-77
2022/10/25 07:04:15;;;;;;;;;;;;;;;12.62;98.42;99461.66;10253365;23;19951;-77
2022/10/25 07:08:17;;;;;;;;;;;;;;;12.71;98.91;99470.22;10279533;23;19947;-77
2022/10/25 07:12:18;;;;;;;;;;;;;;;12.81;98.18;99475.34;10279865;23;19920;-77
2022/10/25 07:16:20;;;;;;;;;;;;;;;12.89;98.55;99491.72;10244702;23;20591;-76
2022/10/25 07:20:22;;;;;;;;;;;;;;;12.97;98.43;99500.34;10278528;23;19952;-77
2022/10/25 07:24:23;;;;;;;;;;;;;;;13.02;97.57;99502.00;10228080;23;19924;-77
2022/10/25 07:28:25;;;;;;;;;;;;;;;13.09;97.22;99505.38;10247579;23;19955;-77
2022/10/25 07:32:26;;;;;;;;;;;;;;;13.17;97.32;99502.69;10269630;23;19978;-77
2022/10/25 07:36:28;;;;;;;;;;;;;;;13.24;96.90;99514.78;10251763;23;19931;-77
2022/10/25 07:40:29;;;;;;;;;;;;;;;13.33;96.65;99524.25;10251054;23;19924;-77
2022/10/25 07:44:31;;;;;;;;;;;;;;;13.34;96.00;99524.22;10252937;23;19997;-76
2022/10/25 07:48:32;;;;;;;;;;;;;;;13.41;95.40;99532.81;10271284;23;20228;-77
2022/10/25 07:52:34;;;;;;;;;;;;;;;13.48;95.67;99532.72;10252524;23;19998;-77
2022/10/25 07:56:35;;;;;;;;;;;;;;;13.55;95.72;99531.75;10251569;23;19989;-77
2022/10/25 08:00:37;;;;;;;;;;;;;;;13.63;94.99;99530.75;10245639;23;19923;-77
2022/10/25 08:04:38;;;;;;;;;;;;;;;13.64;94.08;99535.09;10278547;23;19928;-77
2022/10/25 08:08:39;;;;;;;;;;;;;;;13.65;94.08;99527.28;10252070;23;19935;-77
2022/10/25 08:12:41;;;;;;;;;;;;;;;13.70;93.54;99532.41;10251584;23;19981;-77
2022/10/25 08:16:42;;;;;;;;;;;;;;;13.76;93.77;99543.59;10245537;23;19994;-77
2022/10/25 08:20:44;;;;;;;;;;;;;;;13.76;93.15;99538.38;10251922;23;19920;-77
2022/10/25 08:25:04;;;;;;;;;;;;;;;13.82;92.84;99548.75;10275308;23;20461;-77
2022/10/25 08:29:05;;;;;;;;;;;;;;;13.83;92.72;99549.63;10277616;23;20010;-77
2022/10/25 08:33:06;;;;;;;;;;;;;;;13.85;92.51;99543.50;10243907;23;19924;-77
2022/10/25 08:37:12;;;;;;;;;;;;;;;13.88;92.45;99548.66;10228073;23;19971;-77
2022/10/25 08:41:21;;;;;;;;;;;;;;;13.92;92.96;99544.25;10200778;23;20339;-77
2022/10/25 08:45:35;;;;;;;;;;;;;;;13.95;93.09;99544.19;10218976;23;20487;-77
2022/10/25 08:49:36;;;;;;;;;;;;;;;14.00;93.29;99554.56;10226236;23;20193;-77
2022/10/25 08:53:41;;;;;;;;;;;;;;;14.06;93.46;99555.34;10176691;23;19927;-77
2022/10/25 08:57:45;;;;;;;;;;;;;;;14.11;93.47;99556.13;10226072;23;19924;-77
2022/10/25 09:01:50;;;;;;;;;;;;;;;14.07;93.12;99550.97;10194202;23;20367;-77
2022/10/25 09:05:58;;;;;;;;;;;;;;;14.13;93.46;99550.88;10222602;23;20011;-77
2022/10/25 09:10:07;;;;;;;;;;;;;;;14.19;93.66;99551.66;10201757;23;19924;-77
2022/10/25 09:14:12;;;;;;;;;;;;;;;14.25;93.50;99557.66;10202171;23;19928;-77
2022/10/25 09:18:15;;;;;;;;;;;;;;;14.34;94.26;99562.69;10194918;23;20468;-78
2022/10/25 09:22:27;;;;;;;;;;;;;;;14.39;94.09;99560.91;10226565;23;20212;-77
2022/10/25 09:26:31;;;;;;;;;;;;;;;14.41;94.12;99562.59;10225191;23;19925;-77
2022/10/25 09:30:36;;;;;;;;;;;;;;;14.54;94.56;99557.16;10219147;23;20065;-78
2022/10/25 09:34:39;;;;;;;;;;;;;;;14.66;94.59;99564.78;10244766;23;20796;-78
2022/10/25 09:38:42;;;;;;;;;;;;;;;14.74;94.62;99560.31;10225335;23;19923;-78
2022/10/25 09:42:50;;;;;;;;;;;;;;;14.79;93.84;99561.94;10225053;23;19994;-78
2022/10/25 09:46:55;;;;;;;;;;;;;;;14.88;92.68;99557.41;10241901;23;19985;-78
2022/10/25 09:51:11;;;;;;;;;;;;;;;14.98;92.51;99559.81;10227454;23;20007;-78
2022/10/25 09:55:33;;;;;;;;;;;;;;;15.15;92.19;99566.47;10254451;23;19958;-78
2022/10/25 09:59:34;;;;;;;;;;;;;;;15.27;91.56;99563.63;10278052;23;20252;-77
2022/10/25 10:03:36;;;;;;;;;;;;;;;15.32;88.93;99564.38;10217951;23;19920;-77
2022/10/25 10:07:37;;;;;;;;;;;;;;;15.39;88.38;99565.97;10249452;23;19923;-77
2022/10/25 10:11:39;;;;;;;;;;;;;;;15.43;87.85;99570.22;10224902;23;19986;-77
2022/10/25 10:15:48;;;;;;;;;;;;;;;15.41;87.26;99565.03;10246328;23;19947;-77
2022/10/25 10:20:07;;;;;;;;;;;;;;;15.35;86.55;99565.19;10228773;23;20255;-77
2022/10/25 10:24:12;;;;;;;;;;;;;;;15.33;86.57;99563.50;10279522;23;20010;-77
2022/10/25 10:28:14;;;;;;;;;;;;;;;15.30;85.51;99563.56;10280074;23;19952;-78
2022/10/25 10:32:24;;;;;;;;;;;;;;;15.34;86.36;99566.06;10218171;23;20011;-77
2022/10/25 10:36:27;;;;;;;;;;;;;;;15.42;86.31;99563.28;10251436;23;19986;-77
2022/10/25 10:40:29;;;;;;;;;;;;;;;15.53;86.79;99555.22;10227281;23;20014;-77
2022/10/25 10:44:33;;;;;;;;;;;;;;;15.68;86.42;99549.66;10228817;23;19924;-77
2022/10/25 10:48:37;;;;;;;;;;;;;;;15.82;85.16;99546.75;10244596;23;19920;-77
2022/10/25 10:52:44;;;;;;;;;;;;;;;16.10;83.16;99544.31;10252792;23;19950;-77
2022/10/25 10:57:00;;;;;;;;;;;;;;;16.28;81.64;99542.09;10251510;23;19924;-77
2022/10/25 11:01:05;;;;;;;;;;;;;;;16.43;79.66;99537.38;10245067;23;19928;-77
2022/10/25 11:05:34;;;;;;;;;;;;;;;16.50;78.89;99541.53;10252808;23;19924;-77
2022/10/25 11:09:35;;;;;;;;;;;;;;;16.62;78.27;99536.00;10250200;23;19924;-78
2022/10/25 11:13:36;;;;;;;;;;;;;;;16.69;77.40;99539.31;10278070;23;20235;-77
2022/10/25 11:17:52;;;;;;;;;;;;;;;16.70;77.58;99539.31;10244565;23;19954;-77
2022/10/25 11:22:00;;;;;;;;;;;;;;;16.83;78.12;99540.69;10251872;23;19934;-77
2022/10/25 11:26:08;;;;;;;;;;;;;;;16.86;76.90;99535.34;10251246;23;19924;-77
2022/10/25 11:30:09;;;;;;;;;;;;;;;17.05;76.66;99534.81;10279061;23;20367;-77
2022/10/25 11:34:20;;;;;;;;;;;;;;;17.14;74.65;99530.19;10225425;23;19935;-77
2022/10/25 11:38:24;;;;;;;;;;;;;;;17.33;75.01;99527.03;10226942;23;19924;-77
2022/10/25 11:42:34;;;;;;;;;;;;;;;17.50;74.19;99519.50;10250175;23;20292;-78
2022/10/25 11:46:48;;;;;;;;;;;;;;;17.71;72.53;99518.00;10269104;23;19924;-77
2022/10/25 11:51:09;;;;;;;;;;;;;;;17.80;70.10;99510.72;10276176;23;19934;-77
2022/10/25 11:55:29;;;;;;;;;;;;;;;17.74;70.85;99502.16;10250239;23;19923;-77
2022/10/25 11:59:45;;;;;;;;;;;;;;;17.91;72.53;99502.47;10251325;23;20296;-77
2022/10/25 12:03:55;;;;;;;;;;;;;;;17.91;71.44;99505.09;10269720;23;19919;-78
2022/10/25 12:08:15;;;;;;;;;;;;;;;17.92;70.15;99501.56;10226391;23;20006;-78
2022/10/25 12:12:19;;;;;;;;;;;;;;;17.80;69.01;99500.22;10251563;23;20421;-78
2022/10/25 12:16:22;;;;;;;;;;;;;;;17.84;69.55;99490.47;10270458;23;19931;-77
2022/10/25 12:20:25;;;;;;;;;;;;;;;17.90;69.22;99487.63;10226085;23;20006;-77
2022/10/25 12:24:35;;;;;;;;;;;;;;;18.07;68.95;99495.81;10227146;23;19920;-77
2022/10/25 12:28:44;;;;;;;;;;;;;;;18.21;68.93;99494.50;10250476;23;19923;-77
2022/10/25 12:33:02;;;;;;;;;;;;;;;18.28;67.06;99490.75;10244220;23;20014;-77
2022/10/25 12:37:07;;;;;;;;;;;;;;;18.27;66.96;99482.00;10293789;23;20399;-77
2022/10/25 12:41:16;;;;;;;;;;;;;;;18.18;66.40;99486.72;10277457;23;19924;-78
2022/10/25 12:45:18;;;;;;;;;;;;;;;18.07;66.27;99473.94;10244408;23;19926;-78
2022/10/25 12:49:32;;;;;;;;;;;;;;;18.16;66.87;99472.78;10225113;23;20464;-77
2022/10/25 12:53:52;;;;;;;;;;;;;;;18.21;67.08;99458.56;10251094;23;19962;-76
2022/10/25 12:57:56;;;;;;;;;;;;;;;18.14;64.16;99466.72;10247901;23;20357;-76
2022/10/25 13:02:17;;;;;;;;;;;;;;;17.97;64.96;99456.78;10240746;23;19919;-76
2022/10/25 13:06:28;;;;;;;;;;;;;;;18.01;65.56;99451.34;10242834;23;19927;-76
2022/10/25 13:10:40;;;;;;;;;;;;;;;18.12;66.30;99454.47;10268011;23;19931;-76
2022/10/25 13:14:46;;;;;;;;;;;;;;;18.24;66.46;99445.31;10240896;23;19931;-76
2022/10/25 13:19:07;;;;;;;;;;;;;;;18.35;64.57;99445.81;10260439;23;19928;-76
2022/10/25 13:23:28;;;;;;;;;;;;;;;18.35;63.39;99435.28;10218321;23;20723;-75
2022/10/25 13:27:30;;;;;;;;;;;;;;;18.35;63.60;99432.66;10272343;23;19932;-76
2022/10/25 13:31:31;;;;;;;;;;;;;;;18.30;64.41;99444.22;10237620;23;19924;-76
2022/10/25 13:35:53;;;;;;;;;;;;;;;18.27;63.96;99439.06;10242385;23;19938;-76
2022/10/25 13:39:55;;;;;;;;;;;;;;;18.22;64.90;99436.63;10243629;23;19928;-76
2022/10/25 13:43:56;;;;;;;;;;;;;;;18.22;65.88;99438.38;10244927;23;20205;-76
2022/10/25 13:48:06;;;;;;;;;;;;;;;18.34;65.04;99435.34;10262767;23;19934;-76
2022/10/25 13:52:23;;;;;;;;;;;;;;;18.37;65.91;99427.34;10244264;23;19928;-76
2022/10/25 13:56:24;;;;;;;;;;;;;;;18.37;64.85;99428.19;10244962;23;19979;-76
2022/10/25 14:00:28;;;;;;;;;;;;;;;18.32;65.13;99424.88;10265036;23;19986;-76
2022/10/25 14:04:34;;;;;;;;;;;;;;;18.23;64.55;99426.97;10265557;23;19924;-76
2022/10/25 14:08:42;;;;;;;;;;;;;;;18.19;65.95;99427.97;10243115;23;20430;-76
2022/10/25 14:12:47;;;;;;;;;;;;;;;18.08;63.81;99418.69;10269561;23;19923;-76
2022/10/25 14:16:51;;;;;;;;;;;;;;;18.06;65.21;99409.16;10212374;23;19923;-76
2022/10/25 14:20:56;;;;;;;;;;;;;;;18.05;65.71;99410.06;10270086;23;20531;-76
2022/10/25 14:24:59;;;;;;;;;;;;;;;17.98;65.09;99411.19;10271100;23;19932;-76
2022/10/25 14:29:13;;;;;;;;;;;;;;;17.92;65.54;99408.75;10270687;23;19924;-76
2022/10/25 14:33:22;;;;;;;;;;;;;;;17.87;67.14;99408.91;10262986;23;19974;-76
2022/10/25 14:37:24;;;;;;;;;;;;;;;17.81;67.85;99420.50;10245671;23;19977;-76
2022/10/25 14:41:26;;;;;;;;;;;;;;;17.73;69.12;99416.41;10272737;23;19924;-76
2022/10/25 14:45:28;;;;;;;;;;;;;;;17.63;70.43;99423.69;10240602;23;19985;-76
2022/10/25 14:49:29;;;;;;;;;;;;;;;17.53;72.01;99422.25;10271923;23;19997;-76
2022/10/25 14:53:31;;;;;;;;;;;;;;;17.45;72.27;99421.66;10272701;23;19932;-76
2022/10/25 14:57:33;;;;;;;;;;;;;;;17.36;71.75;99416.69;10247219;23;19931;-76
2022/10/25 15:01:34;;;;;;;;;;;;;;;17.25;73.41;99419.66;10265423;23;19948;-77
2022/10/25 15:05:39;;;;;;;;;;;;;;;17.21;73.45;99423.28;10274143;23;19939;-76
2022/10/25 15:09:47;;;;;;;;;;;;;;;17.16;73.11;99412.06;10274905;23;19924;-76
2022/10/25 15:13:50;;;;;;;;;;;;;;;17.08;74.38;99417.56;10249100;23;19924;-76
2022/10/25 15:17:51;;;;;;;;;;;;;;;16.97;75.96;99416.16;10216253;23;19955;-76
2022/10/25 15:22:04;;;;;;;;;;;;;;;16.87;75.21;99408.53;10249065;23;20425;-76
2022/10/25 15:26:18;;;;;;;;;;;;;;;16.77;76.48;99404.50;10248204;23;19928;-76
2022/10/25 15:30:32;;;;;;;;;;;;;;;16.58;78.67;99398.03;10248091;23;20372;-76
2022/10/25 15:34:33;;;;;;;;;;;;;;;16.38;80.13;99389.88;10222310;23;20352;-76
2022/10/25 15:38:35;;;;;;;;;;;;;;;16.31;79.61;99376.06;10247109;23;20239;-75
2022/10/25 15:42:56;;;;;;;;;;;;;;;16.20;80.37;99378.16;10250620;23;19924;-76
2022/10/25 15:46:57;;;;;;;;;;;;;;;16.01;81.88;99373.41;10264569;23;19983;-76
2022/10/25 15:50:59;;;;;;;;;;;;;;;15.90;82.28;99369.34;10245523;23;20256;-76
2022/10/25 15:55:00;;;;;;;;;;;;;;;15.76;83.24;99367.06;10270914;23;19928;-76
2022/10/25 15:59:02;;;;;;;;;;;;;;;15.63;84.15;99358.69;10245688;23;19923;-75
2022/10/25 16:03:03;;;;;;;;;;;;;;;15.51;84.38;99363.34;10212751;23;19924;-76
2022/10/25 16:07:07;;;;;;;;;;;;;;;15.39;84.75;99361.88;10245115;23;19924;-76
2022/10/25 16:11:12;;;;;;;;;;;;;;;15.23;85.08;99360.53;10245043;23;20027;-76
2022/10/25 16:15:15;;;;;;;;;;;;;;;15.04;85.00;99354.84;10240872;23;19935;-77
2022/10/25 16:19:18;;;;;;;;;;;;;;;14.89;85.93;99350.84;10220761;23;20052;-76
2022/10/25 16:23:22;;;;;;;;;;;;;;;14.74;86.26;99348.59;10246818;23;19924;-77
2022/10/25 16:27:23;;;;;;;;;;;;;;;14.61;87.18;99339.28;10248726;23;19923;-77
2022/10/25 16:31:25;;;;;;;;;;;;;;;14.47;87.45;99326.50;10219348;23;19927;-78
2022/10/25 16:35:26;;;;;;;;;;;;;;;14.29;87.45;99338.16;10227537;23;20007;-78
2022/10/25 16:39:28;;;;;;;;;;;;;;;14.14;88.11;99323.66;10277157;23;19989;-78
2022/10/25 16:43:29;;;;;;;;;;;;;;;14.00;88.66;99323.06;10253291;23;19989;-79
2022/10/25 16:47:31;;;;;;;;;;;;;;;13.89;89.27;99325.91;10272237;23;19992;-79
2022/10/25 16:51:33;;;;;;;;;;;;;;;13.76;89.48;99328.75;10228716;23;19993;-79
2022/10/25 16:55:34;;;;;;;;;;;;;;;13.64;89.60;99328.97;10279269;23;19924;-79
2022/10/25 16:59:36;;;;;;;;;;;;;;;13.54;90.18;99323.94;10253296;23;19975;-79
2022/10/25 17:03:37;;;;;;;;;;;;;;;13.46;90.80;99324.94;10271992;23;20624;-79
2022/10/25 17:07:41;;;;;;;;;;;;;;;13.33;91.00;99323.44;10227554;23;19979;-79
2022/10/25 17:11:43;;;;;;;;;;;;;;;13.22;91.22;99324.47;10279039;23;19927;-79
2022/10/25 17:15:45;;;;;;;;;;;;;;;13.16;91.64;99328.88;10246754;23;19986;-79
2022/10/25 17:19:46;;;;;;;;;;;;;;;13.10;91.83;99328.97;10253338;23;19934;-79
2022/10/25 17:23:48;;;;;;;;;;;;;;;13.01;92.25;99328.22;10253351;23;20010;-79
2022/10/25 17:27:50;;;;;;;;;;;;;;;12.95;92.58;99322.28;10252307;23;19919;-79
2022/10/25 17:31:51;;;;;;;;;;;;;;;12.88;92.71;99312.81;10272399;23;19923;-79
2022/10/25 17:35:53;;;;;;;;;;;;;;;12.81;92.58;99325.06;10228098;23;19919;-79
2022/10/25 17:39:54;;;;;;;;;;;;;;;12.71;93.51;99323.47;10242048;23;20455;-80
2022/10/25 17:43:56;;;;;;;;;;;;;;;12.66;93.95;99326.16;10252837;23;19999;-79
2022/10/25 17:47:57;;;;;;;;;;;;;;;12.57;93.76;99331.50;10244578;23;19982;-79
2022/10/25 17:51:59;;;;;;;;;;;;;;;12.49;93.75;99315.09;10279073;23;19923;-78
2022/10/25 17:56:10;;;;;;;;;;;;;;;12.44;93.78;99323.84;10252868;23;20026;-78
2022/10/25 18:00:12;;;;;;;;;;;;;;;12.25;94.67;99315.41;10220520;23;19959;-79
2022/10/25 18:04:14;;;;;;;;;;;;;;;12.20;95.42;99319.78;10278375;23;19924;-78
2022/10/25 18:08:15;;;;;;;;;;;;;;;12.17;95.32;99320.69;10252767;23;20454;-79
2022/10/25 18:12:18;;;;;;;;;;;;;;;12.15;95.57;99319.00;10226944;23;20018;-78
2022/10/25 18:16:22;;;;;;;;;;;;;;;12.06;95.20;99330.41;10272682;23;19958;-78
2022/10/25 18:20:24;;;;;;;;;;;;;;;12.00;95.44;99320.91;10254546;23;20196;-78
2022/10/25 18:24:30;;;;;;;;;;;;;;;11.98;96.53;99321.78;10279459;23;19924;-79
2022/10/25 18:28:32;;;;;;;;;;;;;;;11.93;96.47;99327.06;10253969;23;19931;-79
2022/10/25 18:32:36;;;;;;;;;;;;;;;11.90;96.23;99328.84;10217529;23;19934;-78
2022/10/25 18:36:40;;;;;;;;;;;;;;;11.89;96.49;99322.78;10254554;23;19982;-78
2022/10/25 18:40:44;;;;;;;;;;;;;;;11.85;96.41;99322.78;10277474;23;20007;-78
2022/10/25 18:44:47;;;;;;;;;;;;;;;11.84;96.86;99314.13;10254331;23;19927;-78
2022/10/25 18:48:50;;;;;;;;;;;;;;;11.82;97.01;99321.09;10248488;23;19987;-78
2022/10/25 18:52:52;;;;;;;;;;;;;;;11.79;97.29;99324.59;10229616;23;20386;-79
2022/10/25 18:56:54;;;;;;;;;;;;;;;11.77;97.60;99325.47;10254758;23;20268;-78
2022/10/25 19:00:55;;;;;;;;;;;;;;;11.75;97.64;99319.41;10255433;23;19986;-78
2022/10/25 19:04:57;;;;;;;;;;;;;;;11.74;98.26;99312.50;10279855;23;19928;-79
2022/10/25 19:09:15;;;;;;;;;;;;;;;11.73;98.20;99302.97;10279182;23;19931;-79
2022/10/25 19:13:29;;;;;;;;;;;;;;;11.71;97.92;99302.13;10278915;23;20539;-78
2022/10/25 19:17:52;;;;;;;;;;;;;;;11.68;98.09;99294.34;10249503;23;19924;-78
2022/10/25 19:21:58;;;;;;;;;;;;;;;11.70;98.23;99295.19;10254689;23;19928;-78
2022/10/25 19:26:06;;;;;;;;;;;;;;;11.67;98.52;99290.91;10227817;23;19924;-79
2022/10/25 19:30:15;;;;;;;;;;;;;;;11.68;99.03;99276.16;10246662;23;19924;-77
2022/10/25 19:34:24;;;;;;;;;;;;;;;11.67;99.41;99275.28;10253162;22;19991;-77
2022/10/25 19:38:31;;;;;;;;;;;;;;;11.70;99.53;99270.06;10247653;23;20311;-78
2022/10/25 19:42:43;;;;;;;;;;;;;;;11.74;99.90;99260.47;10280114;23;19924;-78
2022/10/25 19:46:45;;;;;;;;;;;;;;;11.80;100.00;99261.28;10246830;23;20019;-78
2022/10/25 19:50:47;;;;;;;;;;;;;;;11.87;100.00;99258.63;10280008;23;19993;-78
2022/10/25 19:54:48;;;;;;;;;;;;;;;11.88;100.00;99253.41;10229375;23;19927;-78
2022/10/25 19:58:50;;;;;;;;;;;;;;;11.88;100.00;99245.59;10228057;23;19920;-78
2022/10/25 20:02:51;;;;;;;;;;;;;;;11.90;100.00;99245.59;10271595;23;19991;-78
2022/10/25 20:06:53;;;;;;;;;;;;;;;11.91;100.00;99236.91;10252869;23;19920;-79
2022/10/25 20:10:55;;;;;;;;;;;;;;;11.93;100.00;99237.72;10228723;23;20315;-78
2022/10/25 20:14:57;;;;;;;;;;;;;;;11.94;100.00;99234.25;10252740;23;20537;-80
2022/10/25 20:18:59;;;;;;;;;;;;;;;11.97;100.00;99231.59;10244780;23;20323;-78
2022/10/25 20:23:01;;;;;;;;;;;;;;;12.06;100.00;99232.34;10228074;23;20123;-78
2022/10/25 20:27:03;;;;;;;;;;;;;;;12.18;100.00;99231.31;10252355;23;19924;-78
2022/10/25 20:31:05;;;;;;;;;;;;;;;12.27;100.00;99225.13;10250908;23;20367;-78
2022/10/25 20:35:06;;;;;;;;;;;;;;;12.33;100.00;99230.25;10249780;23;20007;-80
2022/10/25 20:39:09;;;;;;;;;;;;;;;12.42;100.00;99224.06;10229714;23;19963;-81
2022/10/25 20:43:11;;;;;;;;;;;;;;;12.49;100.00;99223.94;10229671;23;19924;-80
2022/10/25 20:47:13;;;;;;;;;;;;;;;12.55;100.00;99220.38;10246993;23;20006;-80
2022/10/25 20:51:14;;;;;;;;;;;;;;;12.59;99.81;99224.69;10228742;23;20298;-80
2022/10/25 20:55:17;;;;;;;;;;;;;;;12.63;99.66;99223.75;10253361;23;19990;-80